Time;durP1;ratioP1;P1;durP2;ratioP2;P2;SDS_P1;SDS_P2;PMS_P1;PMS_P2;Temp;Humidity;BMP_temperature;BMP_pressure;BME280_temperature;BME280_humidity;BME280_pressure;Samples;Min_cycle;Max_cycle;Signal;HPM_P1;HPM_P2
2022/11/28 05:32:48;;;;;;;;;9.00;9.00;;;;;11.05;81.32;100691.38;4978604;28;45302;-81
2022/11/28 05:35:14;;;;;;;;;14.00;9.75;;;;;10.99;81.03;100679.13;4960127;28;45314;-79
2022/11/28 05:37:39;;;;;;;;;11.25;10.00;;;;;11.10;80.66;100692.00;4977914;28;45310;-82
2022/11/28 05:40:05;;;;;;;;;11.50;11.50;;;;;11.10;80.84;100698.25;4977765;28;45542;-80
2022/11/28 05:42:33;;;;;;;;;10.50;9.50;;;;;11.05;81.10;100684.22;4976742;28;46333;-78
2022/11/28 05:44:59;;;;;;;;;12.25;11.00;;;;;10.93;81.27;100666.88;4977320;28;45345;-81
2022/11/28 05:47:25;;;;;;;;;9.00;9.00;;;;;11.04;81.10;100678.91;4977704;28;45393;-80
2022/11/28 05:49:50;;;;;;;;;14.75;10.00;;;;;11.07;81.14;100689.47;4977188;28;45476;-79
2022/11/28 05:52:16;;;;;;;;;12.75;11.00;;;;;11.07;81.13;100689.47;4977455;28;45507;-79
2022/11/28 05:54:41;;;;;;;;;10.00;10.00;;;;;11.03;81.00;100682.53;4943303;28;45465;-80
2022/11/28 05:57:07;;;;;;;;;11.50;10.00;;;;;11.09;81.02;100701.88;4977686;28;45456;-80
2022/11/28 05:59:32;;;;;;;;;14.50;10.50;;;;;11.11;80.80;100702.69;4976897;28;45416;-83
2022/11/28 06:01:58;;;;;;;;;10.00;9.00;;;;;11.11;81.02;100702.69;4977206;28;46092;-79
2022/11/28 06:04:23;;;;;;;;;11.75;11.00;;;;;11.10;80.75;100705.44;4977504;28;45326;-77
2022/11/28 06:06:49;;;;;;;;;4.50;4.50;;;;;10.98;81.37;100693.47;4977562;28;45396;-74
2022/11/28 06:09:15;;;;;;;;;14.50;11.50;;;;;10.95;81.54;100702.56;4948019;28;46092;-78
2022/11/28 06:11:40;;;;;;;;;10.25;8.75;;;;;10.95;81.15;100707.91;4971238;28;45609;-74
2022/11/28 06:14:05;;;;;;;;;14.00;14.00;;;;;11.03;81.29;100717.41;4957746;28;45219;-77
2022/11/28 06:16:31;;;;;;;;;10.00;9.00;;;;;10.93;80.84;100698.19;4957462;28;45938;-77
2022/11/28 06:18:59;;;;;;;;;10.75;10.75;;;;;11.01;81.45;100722.84;4957675;28;45519;-80
2022/11/28 06:21:25;;;;;;;;;8.25;8.25;;;;;10.98;81.39;100726.53;4957473;28;48382;-75
2022/11/28 06:23:50;;;;;;;;;10.00;8.00;;;;;10.69;81.28;100688.66;4972324;28;45382;-75
2022/11/28 06:26:19;;;;;;;;;12.50;12.50;;;;;10.93;81.46;100725.03;4957638;28;45472;-78
2022/11/28 06:28:45;;;;;;;;;10.00;10.00;;;;;10.95;81.47;100717.78;4972067;28;46153;-76
2022/11/28 06:31:15;;;;;;;;;14.25;11.00;;;;;10.92;81.00;100721.47;4957051;28;45547;-75
2022/11/28 06:33:41;;;;;;;;;17.25;11.75;;;;;10.93;81.31;100716.97;4957312;28;45393;-78
2022/11/28 06:36:08;;;;;;;;;9.25;9.25;;;;;10.96;80.96;100733.81;4957687;28;45470;-75
2022/11/28 06:38:33;;;;;;;;;9.25;9.25;;;;;10.88;81.13;100708.28;4957918;28;45555;-75
2022/11/28 06:41:05;;;;;;;;;11.00;11.00;;;;;10.96;80.98;100739.16;4967381;28;45255;-80
2022/11/28 06:43:31;;;;;;;;;13.00;11.25;;;;;10.70;80.88;100696.63;4957181;28;45383;-75
2022/11/28 06:45:56;;;;;;;;;10.00;10.00;;;;;10.90;80.99;100742.13;4957279;28;45286;-72
2022/11/28 06:48:27;;;;;;;;;11.00;11.00;;;;;10.74;81.19;100721.47;4956900;28;45347;-71
2022/11/28 06:50:53;;;;;;;;;17.00;9.00;;;;;10.81;80.99;100739.00;4957144;28;46286;-73
2022/11/28 06:53:19;;;;;;;;;11.25;8.00;;;;;10.80;81.40;100750.69;4956863;28;45431;-72
2022/11/28 06:55:45;;;;;;;;;10.00;9.00;;;;;10.80;81.80;100751.53;4957437;28;45313;-72
2022/11/28 06:58:11;;;;;;;;;15.75;11.25;;;;;10.74;81.46;100735.75;4971908;28;45401;-73
2022/11/28 07:00:37;;;;;;;;;11.75;11.75;;;;;10.82;81.46;100740.75;4956568;28;45313;-73
2022/11/28 07:03:03;;;;;;;;;11.00;11.00;;;;;10.79;81.46;100747.13;4974236;28;45548;-71
2022/11/28 07:05:29;;;;;;;;;7.50;7.50;;;;;10.79;81.50;100741.78;4976829;28;45453;-76
2022/11/28 07:07:56;;;;;;;;;13.00;11.75;;;;;10.81;81.15;100761.31;4975547;28;45420;-74
2022/11/28 07:10:22;;;;;;;;;9.25;9.25;;;;;10.73;81.06;100746.53;4959400;28;47123;-70
2022/11/28 07:12:56;;;;;;;;;12.00;10.00;;;;;10.76;81.17;100747.28;4976344;28;45472;-71
2022/11/28 07:15:22;;;;;;;;;11.50;9.50;;;;;10.81;80.84;100755.97;4977289;28;45223;-71
2022/11/28 07:17:47;;;;;;;;;11.50;9.25;;;;;10.77;81.32;100749.00;4976549;28;45290;-73
2022/11/28 07:20:13;;;;;;;;;11.75;10.25;;;;;10.77;80.56;100748.16;4976700;28;45729;-69
2022/11/28 07:22:39;;;;;;;;;7.75;5.25;;;;;10.75;81.12;100739.28;4977295;28;45545;-71
2022/11/28 07:25:05;;;;;;;;;12.00;9.00;;;;;10.76;80.76;100743.72;4973637;28;45827;-72
2022/11/28 07:27:30;;;;;;;;;9.75;9.50;;;;;10.72;80.70;100728.72;4954350;28;45644;-71
2022/11/28 07:29:55;;;;;;;;;10.50;7.75;;;;;10.83;80.64;100748.72;4950687;28;47334;-71
2022/11/28 07:32:24;;;;;;;;;9.00;9.00;;;;;10.53;80.52;100699.22;4974428;28;45398;-75
2022/11/28 07:34:50;;;;;;;;;9.50;8.75;;;;;10.88;80.71;100756.56;4975608;28;45526;-77
2022/11/28 07:37:15;;;;;;;;;9.00;9.00;;;;;10.89;80.88;100764.50;4972173;28;45531;-75
2022/11/28 07:39:43;;;;;;;;;10.00;10.00;;;;;10.90;80.27;100768.94;4960988;28;46358;-76
2022/11/28 07:42:09;;;;;;;;;9.00;8.00;;;;;10.92;79.97;100763.50;4970992;28;45523;-75
2022/11/28 07:44:34;;;;;;;;;9.75;8.00;;;;;10.90;80.12;100760.88;4951224;28;45425;-75
2022/11/28 07:46:59;;;;;;;;;12.50;8.75;;;;;10.93;80.08;100770.63;4974586;28;45510;-75
2022/11/28 07:49:25;;;;;;;;;8.75;8.75;;;;;10.95;79.83;100766.06;4973324;28;46200;-75
2022/11/28 07:51:50;;;;;;;;;9.00;9.00;;;;;10.96;79.59;100765.13;4957455;28;45405;-77
2022/11/28 07:54:15;;;;;;;;;11.75;8.25;;;;;10.89;79.91;100755.59;4975982;28;45523;-76
2022/11/28 07:56:41;;;;;;;;;9.25;6.75;;;;;10.98;79.37;100771.25;4954615;28;46857;-74
2022/11/28 07:59:06;;;;;;;;;8.00;8.00;;;;;10.95;79.22;100769.63;4967340;28;45370;-77
2022/11/28 08:01:36;;;;;;;;;10.00;9.50;;;;;10.93;79.07;100773.31;4974799;28;45479;-77
2022/11/28 08:04:05;;;;;;;;;9.00;7.50;;;;;10.96;78.98;100779.41;4969247;28;45851;-75
2022/11/28 08:06:34;;;;;;;;;10.50;8.75;;;;;11.02;79.17;100783.59;4971506;28;45424;-77
2022/11/28 08:09:00;;;;;;;;;13.50;10.00;;;;;11.00;78.91;100774.75;4968515;28;46243;-76
2022/11/28 08:11:27;;;;;;;;;6.75;4.00;;;;;10.92;78.77;100760.81;4966159;28;45620;-75
2022/11/28 08:13:52;;;;;;;;;11.00;9.25;;;;;11.06;78.98;100781.66;4974417;28;45531;-78
2022/11/28 08:16:22;;;;;;;;;8.00;6.50;;;;;11.05;78.31;100785.28;4975287;28;46815;-73
2022/11/28 08:18:48;;;;;;;;;8.00;7.50;;;;;10.98;78.56;100771.25;4942077;28;47601;-76
2022/11/28 08:21:19;;;;;;;;;9.50;6.00;;;;;11.03;78.05;100788.03;4956336;28;45227;-75
2022/11/28 08:23:45;;;;;;;;;9.00;8.25;;;;;11.01;77.99;100797.94;4959391;28;45898;-77
2022/11/28 08:26:14;;;;;;;;;8.50;7.00;;;;;10.94;77.84;100792.00;4972646;28;45491;-77
2022/11/28 08:28:40;;;;;;;;;12.00;6.00;;;;;10.92;78.29;100804.63;4973875;28;45368;-76
2022/11/28 08:31:16;;;;;;;;;8.75;4.50;;;;;10.91;78.15;100800.19;4963426;28;45515;-75
2022/11/28 08:33:43;;;;;;;;;7.75;7.25;;;;;10.97;78.10;100805.25;4959753;28;45460;-76
2022/11/28 08:36:10;;;;;;;;;8.75;7.25;;;;;10.96;77.77;100797.31;4964005;28;45426;-75
2022/11/28 08:38:51;;;;;;;;;10.50;8.75;;;;;10.94;78.06;100794.69;5007920;28;45631;-63
2022/11/28 08:41:21;;;;;;;;;10.75;8.00;;;;;10.98;77.90;100788.22;4991956;28;45461;-63
2022/11/28 08:43:47;;;;;;;;;10.00;6.50;;;;;10.99;77.84;100789.09;4991879;28;45341;-63
2022/11/28 08:46:16;;;;;;;;;6.00;6.00;;;;;10.99;77.76;100791.78;4992280;28;45641;-62
2022/11/28 08:48:42;;;;;;;;;8.25;6.50;;;;;10.93;78.28;100786.72;4992041;28;46991;-62
2022/11/28 08:51:13;;;;;;;;;5.25;5.25;;;;;10.92;77.99;100791.22;4992109;28;45406;-64
2022/11/28 08:53:38;;;;;;;;;6.75;4.25;;;;;10.94;78.42;100794.69;4992437;28;45452;-63
2022/11/28 08:56:04;;;;;;;;;6.75;6.00;;;;;10.95;78.15;100796.44;4991499;28;45636;-63
2022/11/28 08:58:29;;;;;;;;;5.75;5.75;;;;;10.96;78.05;100790.13;4990447;28;45538;-62
2022/11/28 09:00:54;;;;;;;;;11.25;6.00;;;;;10.98;77.94;100793.59;4985972;28;45350;-62
2022/11/28 09:03:20;;;;;;;;;8.25;5.50;;;;;11.04;78.57;100788.91;4992195;28;45288;-63
2022/11/28 09:05:46;;;;;;;;;6.25;6.25;;;;;10.97;77.54;100777.59;4991934;28;45643;-62
2022/11/28 09:08:17;;;;;;;;;14.00;6.00;;;;;10.97;77.31;100780.28;4991866;28;46333;-62
2022/11/28 09:10:44;;;;;;;;;8.00;5.25;;;;;10.91;77.54;100777.84;5019100;27;45665;-63
2022/11/28 09:13:13;;;;;;;;;4.00;4.00;;;;;10.89;78.20;100790.47;4991714;28;45373;-62
2022/11/28 09:15:40;;;;;;;;;11.00;9.50;;;;;10.94;78.18;100797.38;4991831;28;45459;-63
2022/11/28 09:18:06;;;;;;;;;6.50;5.00;;;;;10.94;78.29;100786.66;4991877;28;45369;-62
2022/11/28 09:20:32;;;;;;;;;10.00;10.00;;;;;10.95;78.39;100787.53;4991845;28;45352;-62
2022/11/28 09:22:57;;;;;;;;;9.75;6.00;;;;;10.85;78.02;100779.03;4992236;28;45516;-62
2022/11/28 09:25:23;;;;;;;;;10.25;5.25;;;;;10.84;77.94;100779.09;4991531;28;45689;-62
2022/11/28 09:27:48;;;;;;;;;8.25;5.00;;;;;10.89;77.65;100799.38;4991588;28;46365;-62
2022/11/28 09:30:14;;;;;;;;;8.00;6.50;;;;;10.91;77.88;100791.28;4991674;28;45351;-62
2022/11/28 09:32:39;;;;;;;;;9.00;6.75;;;;;10.95;77.94;100800.94;4991949;28;45296;-62
2022/11/28 09:35:05;;;;;;;;;9.50;7.75;;;;;11.04;77.89;100813.03;4990729;28;48674;-62
2022/11/28 09:37:30;;;;;;;;;5.25;5.25;;;;;11.03;77.41;100803.25;5000463;28;45432;-61
2022/11/28 09:39:55;;;;;;;;;9.75;4.50;;;;;11.06;77.10;100814.69;5018369;27;45330;-62
2022/11/28 09:42:23;;;;;;;;;7.00;5.00;;;;;11.03;77.23;100803.25;5011279;28;45309;-62
2022/11/28 09:44:53;;;;;;;;;8.50;6.00;;;;;10.98;77.32;100809.69;5010217;27;45292;-63
2022/11/28 09:47:23;;;;;;;;;6.00;6.00;;;;;10.97;77.81;100801.75;5010913;28;45461;-63
2022/11/28 09:49:58;;;;;;;;;8.50;6.00;;;;;11.07;76.94;100812.88;4999926;28;45372;-63
2022/11/28 09:52:38;;;;;;;;;5.00;4.00;;;;;11.06;76.65;100803.97;4998049;28;45348;-62
2022/11/28 09:55:16;;;;;;;;;7.75;4.25;;;;;10.96;76.95;100802.69;4996524;28;45297;-62
2022/11/28 09:57:50;;;;;;;;;9.00;7.00;;;;;10.99;76.91;100795.34;4997800;28;45651;-62
2022/11/28 10:00:46;;;;;;;;;7.25;6.00;;;;;11.04;77.10;100797.81;4991297;28;45361;-62
2022/11/28 10:04:00;;;;;;;;;9.00;7.00;;;;;11.14;77.04;100800.94;4997504;28;45398;-62
2022/11/28 10:06:44;;;;;;;;;6.25;6.25;;;;;11.25;76.20;100796.78;5011587;28;45450;-63
2022/11/28 10:09:27;;;;;;;;;6.00;4.50;;;;;11.29;76.12;100805.56;4997515;27;46380;-63
2022/11/28 10:12:14;;;;;;;;;9.75;3.75;;;;;11.25;76.01;100793.22;5026443;27;45383;-61
2022/11/28 10:15:27;;;;;;;;;7.25;5.25;;;;;11.33;76.18;100801.78;4998362;28;45648;-62
2022/11/28 10:18:17;;;;;;;;;5.75;5.75;;;;;11.39;75.50;100804.19;5001722;28;45349;-62
2022/11/28 10:20:46;;;;;;;;;6.50;6.00;;;;;11.41;75.39;100804.97;4997611;28;45308;-63
2022/11/28 10:23:16;;;;;;;;;5.75;4.25;;;;;11.44;75.66;100815.56;5017736;27;45378;-62
2022/11/28 10:25:52;;;;;;;;;3.00;3.00;;;;;11.44;75.19;100806.66;4997297;28;45727;-62
2022/11/28 10:28:30;;;;;;;;;4.75;3.00;;;;;11.33;75.43;100813.41;4995857;28;45720;-63
2022/11/28 10:31:03;;;;;;;;;8.50;5.00;;;;;11.40;75.55;100816.66;4996886;28;45370;-63
2022/11/28 10:33:47;;;;;;;;;10.50;4.00;;;;;11.35;75.17;100821.38;4997260;28;45335;-61
2022/11/28 10:36:23;;;;;;;;;6.00;5.00;;;;;11.36;75.77;100809.69;4997036;28;45326;-62
2022/11/28 10:38:48;;;;;;;;;4.00;4.00;;;;;11.43;75.03;100808.47;4996765;28;45288;-62
2022/11/28 10:41:38;;;;;;;;;8.00;6.25;;;;;11.50;75.11;100807.22;4997278;27;45882;-63
2022/11/28 10:44:17;;;;;;;;;5.50;4.25;;;;;11.62;75.41;100805.75;4997041;28;45410;-63
2022/11/28 10:46:42;;;;;;;;;6.75;6.00;;;;;11.73;74.95;100804.28;4997086;28;45481;-62
2022/11/28 10:49:24;;;;;;;;;5.00;5.00;;;;;11.79;73.79;100805.81;5002155;27;45565;-62
2022/11/28 10:51:56;;;;;;;;;5.00;4.00;;;;;11.84;73.52;100800.19;4996993;28;45376;-62
2022/11/28 10:54:32;;;;;;;;;6.00;4.00;;;;;11.86;73.65;100790.25;4997338;28;45629;-64
2022/11/28 10:57:22;;;;;;;;;3.00;3.00;;;;;12.05;72.17;100808.06;4996630;28;45680;-62
2022/11/28 10:59:57;;;;;;;;;5.75;3.25;;;;;12.11;71.96;100799.69;4996245;28;45479;-62
2022/11/28 11:02:41;;;;;;;;;5.75;3.00;;;;;12.26;71.67;100800.69;5026671;27;46065;-63
2022/11/28 11:05:13;;;;;;;;;3.25;2.75;;;;;12.44;71.45;100790.81;4996541;28;45402;-62
2022/11/28 11:07:46;;;;;;;;;4.50;1.75;;;;;12.95;69.93;100792.50;4996787;28;45414;-62
2022/11/28 11:10:24;;;;;;;;;4.50;3.50;;;;;13.71;65.77;100790.91;5007999;27;45564;-63
2022/11/28 11:12:51;;;;;;;;;4.50;4.50;;;;;14.59;64.32;100792.84;5002149;27;45474;-63
2022/11/28 11:15:30;;;;;;;;;5.50;4.00;;;;;15.46;60.75;100799.84;4996260;28;45434;-62
2022/11/28 11:17:57;;;;;;;;;4.75;2.00;;;;;16.18;58.17;100804.03;4996362;28;45486;-62
2022/11/28 11:20:28;;;;;;;;;4.50;3.25;;;;;16.35;56.79;100812.84;5008281;27;45497;-55
2022/11/28 11:23:09;;;;;;;;;9.50;3.00;;;;;16.19;56.33;100819.28;4996830;28;45381;-60
2022/11/28 11:25:35;;;;;;;;;4.50;2.00;;;;;15.79;57.61;100814.84;4996647;28;45352;-61
2022/11/28 11:28:03;;;;;;;;;11.00;3.00;;;;;15.42;59.06;100806.41;4996713;27;45472;-60
2022/11/28 11:30:42;;;;;;;;;6.00;4.00;;;;;15.14;59.84;100804.59;4997022;28;45376;-62
2022/11/28 11:33:16;;;;;;;;;5.25;2.00;;;;;14.76;60.53;100796.25;4996482;27;45481;-59
2022/11/28 11:35:47;;;;;;;;;4.25;3.00;;;;;14.56;60.83;100796.59;4967200;28;45581;-60
2022/11/28 11:38:22;;;;;;;;;4.75;3.00;;;;;14.38;62.09;100792.28;4996719;28;45394;-61
2022/11/28 11:40:49;;;;;;;;;6.00;3.00;;;;;14.25;62.04;100791.31;4997321;27;45416;-60
2022/11/28 11:43:32;;;;;;;;;4.50;3.75;;;;;14.00;63.04;100781.13;4996107;28;46158;-61
2022/11/28 11:46:05;;;;;;;;;4.25;3.50;;;;;13.81;63.92;100783.16;4996854;28;45382;-61
2022/11/28 11:48:36;;;;;;;;;4.75;3.50;;;;;13.86;64.31;100795.44;4996844;28;45449;-60
2022/11/28 11:51:02;;;;;;;;;4.50;2.75;;;;;13.75;63.65;100789.78;4996544;27;45364;-60
2022/11/28 11:53:27;;;;;;;;;6.00;4.00;;;;;13.62;64.81;100786.91;4996525;28;46185;-61
2022/11/28 11:55:55;;;;;;;;;5.00;4.75;;;;;13.25;64.96;100785.47;4995554;27;48832;-60
2022/11/28 11:58:49;;;;;;;;;3.00;3.00;;;;;13.10;66.16;100785.44;4977786;28;45454;-61
2022/11/28 12:01:17;;;;;;;;;3.00;3.00;;;;;13.05;65.83;100777.59;4994955;28;45498;-60
2022/11/28 12:03:59;;;;;;;;;4.25;2.50;;;;;13.06;66.39;100770.41;4996217;28;45396;-61
2022/11/28 12:06:35;;;;;;;;;4.50;4.50;;;;;13.05;66.30;100761.44;4997242;28;45352;-61
2022/11/28 12:09:15;;;;;;;;;8.50;6.25;;;;;13.18;66.19;100764.38;4997666;28;45379;-61
2022/11/28 12:11:49;;;;;;;;;3.25;3.25;;;;;13.15;65.05;100769.91;5029470;27;45306;-61
2022/11/28 12:14:33;;;;;;;;;9.75;5.00;;;;;13.05;65.69;100757.88;4993525;28;45283;-62
2022/11/28 12:17:17;;;;;;;;;3.00;3.00;;;;;12.87;65.66;100775.91;4996521;28;45440;-61
2022/11/28 12:20:05;;;;;;;;;5.75;4.00;;;;;12.92;65.91;100763.09;4996504;28;45371;-63
2022/11/28 12:22:41;;;;;;;;;3.50;3.00;;;;;12.92;65.18;100759.53;4991757;28;45307;-60
2022/11/28 12:25:24;;;;;;;;;3.00;3.00;;;;;12.94;65.58;100757.59;4995962;28;45462;-61
2022/11/28 12:28:08;;;;;;;;;3.50;3.50;;;;;12.93;65.03;100756.72;4978589;28;45328;-61
2022/11/28 12:30:52;;;;;;;;;5.75;4.25;;;;;12.91;64.72;100755.09;4996241;28;45245;-61
2022/11/28 12:33:20;;;;;;;;;2.00;2.00;;;;;12.88;65.24;100756.13;4995921;28;45277;-61
2022/11/28 12:36:06;;;;;;;;;5.00;3.25;;;;;12.95;65.30;100749.44;4981230;28;45327;-61
2022/11/28 12:39:11;;;;;;;;;2.75;2.75;;;;;12.97;64.89;100747.56;4993960;28;45288;-60
2022/11/28 12:41:55;;;;;;;;;4.00;4.00;;;;;13.00;65.24;100742.00;4978244;28;45383;-61
2022/11/28 12:44:47;;;;;;;;;7.75;4.00;;;;;13.03;64.94;100749.91;4994957;28;45530;-60
2022/11/28 12:47:49;;;;;;;;;6.25;3.50;;;;;13.05;64.63;100739.91;4995613;27;46340;-57
2022/11/28 12:50:15;;;;;;;;;7.75;4.00;;;;;13.02;64.94;100739.22;4995903;28;45312;-58
2022/11/28 12:53:14;;;;;;;;;3.75;3.00;;;;;13.06;65.25;100738.97;4995954;28;45358;-68
2022/11/28 12:55:58;;;;;;;;;2.75;2.75;;;;;13.10;65.12;100739.69;4979535;28;45287;-66
2022/11/28 12:58:32;;;;;;;;;1.00;1.00;;;;;13.13;65.21;100739.47;4995552;28;45394;-67
2022/11/28 13:01:34;;;;;;;;;3.00;3.00;;;;;13.29;64.99;100735.00;4989465;28;45395;-70
2022/11/28 13:04:34;;;;;;;;;3.00;3.00;;;;;13.36;64.66;100731.00;4988457;28;45477;-64
2022/11/28 13:07:18;;;;;;;;;3.25;3.00;;;;;13.33;64.44;100731.19;4976611;28;45406;-63
2022/11/28 13:10:07;;;;;;;;;5.00;3.00;;;;;13.25;64.90;100742.41;4994832;28;46453;-65
2022/11/28 13:12:49;;;;;;;;;2.75;2.75;;;;;13.22;64.77;100730.91;5005558;27;45591;-60
2022/11/28 13:15:20;;;;;;;;;7.50;3.50;;;;;13.27;65.44;100737.78;4982720;27;45292;-60
2022/11/28 13:17:57;;;;;;;;;2.00;2.00;;;;;13.26;65.26;100735.19;4993946;27;45482;-61
2022/11/28 13:20:34;;;;;;;;;3.25;3.25;;;;;13.30;65.76;100746.63;4994093;28;45465;-61
2022/11/28 13:23:23;;;;;;;;;6.25;2.00;;;;;13.08;65.32;100734.38;4994993;28;45438;-61
2022/11/28 13:25:51;;;;;;;;;2.00;2.00;;;;;13.17;65.44;100743.78;4999290;28;45282;-60
2022/11/28 13:28:43;;;;;;;;;5.50;3.00;;;;;13.12;65.09;100749.38;4997766;28;46046;-60
2022/11/28 13:31:28;;;;;;;;;4.00;2.75;;;;;13.12;64.93;100753.91;4997601;28;46238;-63
2022/11/28 13:33:56;;;;;;;;;1.00;1.00;;;;;13.13;65.53;100752.94;4996458;28;45490;-61
2022/11/28 13:36:42;;;;;;;;;4.00;2.00;;;;;13.20;64.69;100741.78;4999380;28;45402;-61
2022/11/28 13:39:16;;;;;;;;;2.00;2.00;;;;;13.33;65.04;100747.34;4998284;28;45358;-60
2022/11/28 13:41:51;;;;;;;;;1.75;1.75;;;;;13.27;64.98;100751.22;4997823;28;46380;-61
2022/11/28 13:44:27;;;;;;;;;4.25;3.00;;;;;13.18;65.09;100753.59;4997913;28;45253;-61
2022/11/28 13:46:52;;;;;;;;;5.00;2.75;;;;;13.10;64.79;100759.34;5009440;28;45416;-62
2022/11/28 13:49:21;;;;;;;;;2.00;2.00;;;;;13.23;65.04;100762.28;4990025;28;45570;-61
2022/11/28 13:51:47;;;;;;;;;3.75;2.75;;;;;13.16;64.82;100752.81;4997624;28;45939;-61
2022/11/28 13:54:21;;;;;;;;;1.50;1.50;;;;;13.16;65.34;100764.47;4998098;28;45308;-61
2022/11/28 13:57:06;;;;;;;;;4.50;2.75;;;;;13.10;65.78;100750.44;4998196;28;45339;-62
2022/11/28 13:59:32;;;;;;;;;2.50;2.50;;;;;13.24;65.68;100761.31;4997513;28;45749;-61
2022/11/28 14:02:14;;;;;;;;;2.00;2.00;;;;;13.39;65.41;100760.44;4997623;28;45261;-62
2022/11/28 14:04:42;;;;;;;;;3.00;3.00;;;;;13.65;64.65;100753.56;4998204;28;45502;-62
2022/11/28 14:07:21;;;;;;;;;1.25;1.25;;;;;14.00;63.06;100746.94;4997536;28;45312;-63
2022/11/28 14:09:56;;;;;;;;;2.00;2.00;;;;;14.42;59.69;100747.16;4997670;28;45317;-61
2022/11/28 14:12:35;;;;;;;;;1.00;1.00;;;;;14.77;59.59;100759.31;4992600;28;45488;-62
2022/11/28 14:15:16;;;;;;;;;1.75;1.75;;;;;15.09;58.32;100757.28;4997751;28;45356;-61
2022/11/28 14:18:25;;;;;;;;;1.00;1.00;;;;;15.49;57.06;100759.09;4980106;28;45363;-62
2022/11/28 14:21:16;;;;;;;;;1.00;1.00;;;;;15.52;56.49;100763.44;4997427;28;45289;-60
2022/11/28 14:24:07;;;;;;;;;2.50;2.00;;;;;15.72;55.53;100767.56;4996708;28;45462;-61
2022/11/28 14:26:36;;;;;;;;;3.00;1.00;;;;;16.07;55.57;100776.88;5026284;27;45551;-61
2022/11/28 14:29:04;;;;;;;;;1.00;1.00;;;;;16.15;55.48;100766.41;5005626;27;45405;-54
2022/11/28 14:31:32;;;;;;;;;1.00;1.00;;;;;16.22;55.33;100766.84;4997153;27;45417;-63
2022/11/28 14:34:41;;;;;;;;;2.00;2.00;;;;;15.89;55.02;100770.88;4996995;28;45308;-61
2022/11/28 14:37:19;;;;;;;;;3.00;1.25;;;;;15.84;56.00;100764.88;5001226;27;45533;-61
2022/11/28 14:39:44;;;;;;;;;1.75;1.75;;;;;15.92;56.05;100772.47;4996714;28;45521;-61
2022/11/28 14:42:12;;;;;;;;;4.00;2.00;;;;;16.14;55.33;100769.19;4997389;28;45964;-61
2022/11/28 14:44:55;;;;;;;;;2.00;2.00;;;;;16.24;54.99;100775.72;4997484;28;45409;-61
2022/11/28 14:47:20;;;;;;;;;2.50;1.25;;;;;16.10;55.58;100782.06;4998452;28;45338;-62
2022/11/28 14:50:05;;;;;;;;;2.25;2.25;;;;;16.07;55.31;100774.16;4997534;28;45209;-62
2022/11/28 14:52:32;;;;;;;;;3.50;3.00;;;;;16.04;55.46;100782.47;4996996;28;45204;-61
2022/11/28 14:55:14;;;;;;;;;1.00;1.00;;;;;15.99;55.43;100778.38;4997181;28;45316;-62
2022/11/28 14:58:03;;;;;;;;;4.00;2.00;;;;;15.91;55.46;100786.97;4995769;27;45436;-62
2022/11/28 15:00:36;;;;;;;;;4.00;2.00;;;;;15.82;55.96;100793.03;4997379;28;45355;-61
2022/11/28 15:03:10;;;;;;;;;2.00;2.00;;;;;15.66;56.63;100776.06;4997176;28;45312;-61
2022/11/28 15:05:42;;;;;;;;;5.00;2.00;;;;;15.60;57.06;100780.03;4997645;28;46550;-61
2022/11/28 15:08:16;;;;;;;;;2.00;1.25;;;;;15.52;56.88;100787.75;4997051;28;45327;-61
2022/11/28 15:11:01;;;;;;;;;4.00;4.00;;;;;15.24;57.63;100782.41;5006587;27;45415;-61
2022/11/28 15:13:38;;;;;;;;;2.75;2.75;;;;;15.09;58.78;100782.44;4996904;28;45352;-60
2022/11/28 15:16:08;;;;;;;;;3.00;2.50;;;;;14.81;58.99;100778.88;4997045;28;47252;-61
2022/11/28 15:18:34;;;;;;;;;1.25;1.25;;;;;14.66;59.49;100781.56;4997038;28;45234;-60
2022/11/28 15:21:04;;;;;;;;;2.50;2.25;;;;;14.57;59.59;100786.66;4996787;28;45471;-61
2022/11/28 15:23:35;;;;;;;;;5.00;3.00;;;;;14.40;59.91;100771.53;4997821;28;45508;-60
2022/11/28 15:26:02;;;;;;;;;6.00;4.25;;;;;14.30;60.34;100773.88;4988946;28;46167;-61
2022/11/28 15:28:31;;;;;;;;;3.75;2.00;;;;;14.12;60.71;100782.22;4995884;28;45319;-61
2022/11/28 15:30:59;;;;;;;;;3.00;1.00;;;;;14.00;61.39;100783.81;4996951;27;45514;-60
2022/11/28 15:33:26;;;;;;;;;4.75;3.00;;;;;13.78;61.81;100781.50;5018396;27;45402;-60
2022/11/28 15:36:03;;;;;;;;;3.25;1.75;;;;;13.75;61.75;100791.59;4998413;27;45712;-60
2022/11/28 15:38:30;;;;;;;;;2.00;2.00;;;;;13.56;61.20;100787.28;4996788;28;45422;-61
2022/11/28 15:40:58;;;;;;;;;1.75;1.00;;;;;13.41;61.83;100780.09;4997078;28;45236;-60
2022/11/28 15:43:24;;;;;;;;;1.50;1.50;;;;;13.22;61.12;100782.06;4996753;28;45304;-61
2022/11/28 15:45:53;;;;;;;;;3.00;3.00;;;;;13.20;61.72;100798.31;4996842;28;46257;-61
2022/11/28 15:48:25;;;;;;;;;3.00;3.00;;;;;13.14;62.13;100798.66;4997018;28;45782;-61
2022/11/28 15:50:51;;;;;;;;;4.00;2.00;;;;;13.06;62.01;100790.09;4996742;28;45405;-61
2022/11/28 15:53:19;;;;;;;;;1.00;0.75;;;;;13.03;61.75;100787.56;4980466;28;45501;-60
2022/11/28 15:55:45;;;;;;;;;1.50;1.50;;;;;12.99;62.03;100793.22;4996767;28;46213;-61
2022/11/28 15:58:28;;;;;;;;;4.00;2.25;;;;;12.78;62.01;100779.97;4994436;27;45298;-61
2022/11/28 16:01:01;;;;;;;;;2.00;2.00;;;;;12.74;62.38;100788.31;4990952;28;45371;-61
2022/11/28 16:03:33;;;;;;;;;2.00;2.00;;;;;12.70;62.54;100797.50;4996706;28;45382;-61
2022/11/28 16:05:59;;;;;;;;;2.00;2.00;;;;;12.60;62.60;100789.03;4996407;28;46967;-61
2022/11/28 16:08:34;;;;;;;;;2.50;2.50;;;;;12.58;62.93;100795.47;4996139;28;45497;-61
2022/11/28 16:11:04;;;;;;;;;3.00;3.00;;;;;12.59;63.11;100802.59;5023555;27;45407;-61
2022/11/28 16:13:31;;;;;;;;;2.25;2.25;;;;;12.52;63.27;100810.97;4978426;28;45571;-60
2022/11/28 16:15:58;;;;;;;;;2.25;2.25;;;;;12.50;63.63;100820.91;4997573;28;45461;-60
2022/11/28 16:18:28;;;;;;;;;5.50;3.00;;;;;12.44;63.71;100817.69;4996395;28;45272;-61
2022/11/28 16:20:57;;;;;;;;;6.25;6.00;;;;;12.46;64.45;100818.50;4997084;27;45327;-61
2022/11/28 16:23:33;;;;;;;;;6.25;4.00;;;;;12.38;65.10;100810.84;4996218;28;45313;-61
2022/11/28 16:26:17;;;;;;;;;4.75;4.25;;;;;12.37;65.46;100813.59;4978744;28;46015;-60
2022/11/28 16:28:57;;;;;;;;;5.00;5.00;;;;;12.32;66.15;100799.53;4995758;28;45447;-61
2022/11/28 16:31:23;;;;;;;;;7.75;6.25;;;;;12.32;66.98;100813.84;4997637;28;45390;-60
2022/11/28 16:33:49;;;;;;;;;6.25;6.00;;;;;12.26;67.10;100808.75;4995836;28;45387;-60
2022/11/28 16:36:14;;;;;;;;;10.75;7.75;;;;;12.23;67.68;100811.63;4995730;28;45323;-60
2022/11/28 16:38:40;;;;;;;;;5.25;5.25;;;;;12.19;67.91;100814.53;4978099;28;45594;-61
2022/11/28 16:41:14;;;;;;;;;10.00;6.75;;;;;12.15;68.33;100821.03;4996146;28;45482;-61
2022/11/28 16:43:39;;;;;;;;;11.00;6.50;;;;;12.08;68.61;100807.88;4995771;28;45525;-60
2022/11/28 16:46:18;;;;;;;;;10.00;10.00;;;;;12.01;68.82;100814.53;4985481;28;46078;-60
2022/11/28 16:49:10;;;;;;;;;13.75;10.00;;;;;11.97;69.72;100818.34;4983388;28;45329;-60
2022/11/28 16:51:39;;;;;;;;;8.25;8.25;;;;;11.94;69.40;100817.59;5003553;27;45379;-60
2022/11/28 16:54:30;;;;;;;;;12.25;11.00;;;;;11.83;69.92;100812.75;4995904;28;45306;-60
2022/11/28 16:57:09;;;;;;;;;12.50;11.25;;;;;11.81;70.17;100814.69;4996578;28;47384;-61
2022/11/28 16:59:34;;;;;;;;;13.75;10.50;;;;;11.80;70.37;100817.44;4981191;27;45677;-61
2022/11/28 17:02:00;;;;;;;;;15.75;10.50;;;;;11.76;70.16;100816.69;4998625;28;45488;-60
2022/11/28 17:04:29;;;;;;;;;12.75;11.25;;;;;11.76;70.67;100819.38;4998913;28;45477;-61
2022/11/28 17:07:04;;;;;;;;;9.00;8.50;;;;;11.77;70.44;100831.00;4998649;28;46644;-59
2022/11/28 17:09:29;;;;;;;;;10.75;10.75;;;;;11.73;70.85;100832.97;4998014;28;45618;-60
2022/11/28 17:12:07;;;;;;;;;10.25;10.25;;;;;11.75;70.37;100833.75;5029349;27;45382;-60
2022/11/28 17:14:33;;;;;;;;;16.75;11.00;;;;;11.74;70.55;100837.34;4997856;27;46602;-60
2022/11/28 17:16:59;;;;;;;;;15.50;10.75;;;;;11.72;70.70;100832.09;4998769;28;45417;-61
2022/11/28 17:19:24;;;;;;;;;8.00;8.00;;;;;11.64;71.03;100834.28;4998496;28;45403;-60